Time;durP1;ratioP1;P1;durP2;ratioP2;P2;SDS_P1;SDS_P2;PMS_P1;PMS_P2;Temp;Humidity;BMP_temperature;BMP_pressure;BME280_temperature;BME280_humidity;BME280_pressure;Samples;Min_cycle;Max_cycle;Signal;HPM_P1;HPM_P2
2021/09/24 00:02:03;;;;;;;7.63;3.53;;;18.10;93.20;;;;;;5020703;28;20061;-89
2021/09/24 00:04:30;;;;;;;8.82;3.10;;;18.20;93.30;;;;;;5020517;28;20490;-89
2021/09/24 00:06:56;;;;;;;10.20;3.47;;;18.10;93.30;;;;;;5006794;28;20038;-89
2021/09/24 00:09:22;;;;;;;9.40;3.35;;;18.20;93.30;;;;;;5024980;28;20026;-89
2021/09/24 00:11:47;;;;;;;7.22;3.17;;;18.20;93.30;;;;;;5020127;28;20506;-89
2021/09/24 00:14:13;;;;;;;12.23;3.28;;;18.20;93.40;;;;;;5036830;28;20382;-89
2021/09/24 00:16:39;;;;;;;9.43;3.42;;;18.10;93.40;;;;;;5004064;28;20029;-89
2021/09/24 00:19:05;;;;;;;9.40;3.40;;;18.10;93.40;;;;;;5003961;28;20029;-89
2021/09/24 00:21:32;;;;;;;9.57;3.30;;;18.10;93.40;;;;;;5004477;28;20156;-89
2021/09/24 00:27:19;;;;;;;8.60;3.83;;;18.10;93.50;;;;;;5018434;28;20041;-89
2021/09/24 00:29:48;;;;;;;8.07;3.30;;;18.10;93.40;;;;;;4984027;28;20026;-89
2021/09/24 00:32:14;;;;;;;9.20;3.35;;;18.10;93.40;;;;;;4984526;28;20093;-89
2021/09/24 00:34:41;;;;;;;7.57;3.58;;;18.10;93.50;;;;;;5035427;28;20510;-89
2021/09/24 00:37:07;;;;;;;8.07;3.45;;;18.10;93.50;;;;;;5020330;28;20075;-89
2021/09/24 00:39:33;;;;;;;9.32;3.65;;;18.00;93.40;;;;;;5019679;28;20542;-89
2021/09/24 00:41:59;;;;;;;12.02;3.95;;;18.00;93.40;;;;;;5036338;28;20033;-89
2021/09/24 00:44:27;;;;;;;7.63;3.75;;;18.00;93.40;;;;;;5019819;28;20021;-89
2021/09/24 00:46:54;;;;;;;14.10;3.85;;;18.00;93.50;;;;;;5036202;28;20068;-89
2021/09/24 00:49:20;;;;;;;12.82;3.70;;;18.00;93.60;;;;;;5036999;28;20083;-89
2021/09/24 00:51:46;;;;;;;11.80;3.72;;;18.00;93.50;;;;;;5019460;28;20054;-89
2021/09/24 00:54:12;;;;;;;8.60;3.47;;;18.00;93.60;;;;;;5019819;28;20116;-89
2021/09/24 00:56:38;;;;;;;10.32;3.22;;;18.00;93.50;;;;;;5019461;28;20069;-89
2021/09/24 00:59:03;;;;;;;8.13;3.00;;;18.00;93.50;;;;;;5003161;28;20025;-89
2021/09/24 01:01:29;;;;;;;10.57;3.13;;;18.00;93.50;;;;;;5019457;28;20033;-88
2021/09/24 01:03:55;;;;;;;7.03;2.85;;;18.00;93.50;;;;;;5018378;28;20072;-89
2021/09/24 01:06:21;;;;;;;8.88;3.05;;;17.90;93.50;;;;;;5003390;28;20034;-89
2021/09/24 01:08:47;;;;;;;9.55;2.70;;;17.90;93.50;;;;;;5028269;28;20036;-88
2021/09/24 01:11:13;;;;;;;7.13;2.90;;;17.90;93.50;;;;;;5018861;28;20025;-89
2021/09/24 01:13:39;;;;;;;9.50;2.85;;;17.90;93.50;;;;;;5019023;28;20432;-89
2021/09/24 01:16:05;;;;;;;7.30;2.92;;;17.90;93.50;;;;;;5019671;28;20036;-88
2021/09/24 01:18:30;;;;;;;8.65;2.67;;;17.90;93.50;;;;;;5003086;28;20402;-88
2021/09/24 01:20:58;;;;;;;8.82;2.95;;;17.80;93.50;;;;;;5035606;28;20124;-88
2021/09/24 01:23:23;;;;;;;5.35;2.47;;;17.80;93.50;;;;;;5019438;28;20498;-88
2021/09/24 01:25:49;;;;;;;7.55;2.80;;;17.80;93.50;;;;;;5018916;28;20025;-88
2021/09/24 01:28:15;;;;;;;8.82;2.83;;;17.80;93.50;;;;;;5019855;28;20061;-89
2021/09/24 01:30:40;;;;;;;8.68;2.60;;;17.80;93.40;;;;;;5020299;28;20030;-88
2021/09/24 01:33:06;;;;;;;5.53;2.42;;;17.80;93.50;;;;;;5004450;28;20021;-88
2021/09/24 01:35:32;;;;;;;9.93;2.63;;;17.80;93.40;;;;;;5018951;28;20017;-88
2021/09/24 01:37:58;;;;;;;8.10;3.20;;;17.80;93.40;;;;;;5002269;28;20033;-89
2021/09/24 01:40:23;;;;;;;7.82;3.03;;;17.80;93.40;;;;;;5002925;28;20063;-88
2021/09/24 01:42:54;;;;;;;6.72;2.78;;;17.80;93.30;;;;;;5002252;28;20064;-88
2021/09/24 01:45:21;;;;;;;7.28;3.00;;;17.70;93.40;;;;;;5002170;28;20032;-89
2021/09/24 01:47:47;;;;;;;7.05;2.78;;;17.70;93.50;;;;;;5018642;28;20394;-88
2021/09/24 01:50:14;;;;;;;9.00;3.50;;;17.70;93.50;;;;;;5018708;28;20378;-88
2021/09/24 01:52:40;;;;;;;8.73;3.38;;;17.70;93.50;;;;;;5018713;28;20052;-88
2021/09/24 01:55:07;;;;;;;8.70;3.60;;;17.70;93.50;;;;;;5003083;28;20120;-88
2021/09/24 01:57:33;;;;;;;9.95;4.20;;;17.70;93.60;;;;;;5002171;28;20026;-88
2021/09/24 01:59:59;;;;;;;12.38;3.75;;;17.70;93.60;;;;;;5018452;28;20028;-89
2021/09/24 02:02:24;;;;;;;11.48;3.92;;;17.70;93.60;;;;;;5001851;28;20024;-88
2021/09/24 02:04:50;;;;;;;10.10;3.55;;;17.70;93.70;;;;;;5018354;28;20124;-88
2021/09/24 02:07:16;;;;;;;7.25;3.00;;;17.70;93.70;;;;;;5018187;28;20021;-88
2021/09/24 02:09:42;;;;;;;10.50;3.50;;;17.60;94.00;;;;;;5018298;28;20522;-88
2021/09/24 02:12:08;;;;;;;9.50;3.65;;;17.60;93.80;;;;;;5018316;28;20028;-88
2021/09/24 02:14:34;;;;;;;8.45;3.00;;;17.60;93.80;;;;;;5018169;28;20501;-88
2021/09/24 02:17:00;;;;;;;9.90;3.53;;;17.60;93.80;;;;;;5017965;28;20028;-88
2021/09/24 02:19:26;;;;;;;6.45;3.30;;;17.60;93.80;;;;;;5018251;28;20053;-88
2021/09/24 02:21:52;;;;;;;6.88;3.35;;;17.60;93.80;;;;;;5003471;28;20030;-88
2021/09/24 02:24:21;;;;;;;7.13;3.55;;;17.60;93.80;;;;;;5002529;28;20033;-88
2021/09/24 02:26:49;;;;;;;9.57;3.38;;;17.60;93.80;;;;;;5003063;28;20032;-88
2021/09/24 02:29:15;;;;;;;9.70;3.13;;;17.60;93.80;;;;;;5018557;28;20475;-88
2021/09/24 02:31:40;;;;;;;7.03;3.53;;;17.70;93.90;;;;;;5017632;28;20032;-88
2021/09/24 02:34:07;;;;;;;7.38;3.22;;;17.70;93.90;;;;;;5035478;28;20025;-88
2021/09/24 02:36:33;;;;;;;8.95;3.22;;;17.60;93.80;;;;;;5018475;28;20494;-88
2021/09/24 02:38:59;;;;;;;7.20;3.05;;;17.60;93.80;;;;;;5018546;28;20017;-87
2021/09/24 02:41:25;;;;;;;10.75;4.13;;;17.60;93.80;;;;;;5002174;28;20080;-88
2021/09/24 02:43:51;;;;;;;8.57;3.80;;;17.60;93.80;;;;;;5017715;28;20479;-88
2021/09/24 02:46:19;;;;;;;8.05;2.90;;;17.60;93.80;;;;;;5035431;28;20033;-88
2021/09/24 02:48:45;;;;;;;7.40;3.08;;;17.60;93.90;;;;;;5002205;28;20360;-88
2021/09/24 02:51:11;;;;;;;8.30;3.30;;;17.50;93.90;;;;;;5033568;28;20029;-87
2021/09/24 02:53:37;;;;;;;8.90;3.63;;;17.50;93.90;;;;;;5017710;28;20099;-88
2021/09/24 02:56:03;;;;;;;7.22;2.70;;;17.50;93.90;;;;;;5000931;28;20033;-88
2021/09/24 02:58:28;;;;;;;8.52;3.38;;;17.50;94.00;;;;;;5017602;28;20061;-88
2021/09/24 03:00:54;;;;;;;8.98;3.05;;;17.40;93.90;;;;;;5018611;28;20120;-88
2021/09/24 03:03:19;;;;;;;7.97;3.28;;;17.40;94.00;;;;;;5001375;28;20029;-88
2021/09/24 03:05:45;;;;;;;7.03;2.90;;;17.50;94.00;;;;;;5000845;28;20030;-88
2021/09/24 03:08:11;;;;;;;10.27;3.65;;;17.50;94.00;;;;;;4984604;28;20025;-88
2021/09/24 03:10:36;;;;;;;7.90;2.95;;;17.40;94.00;;;;;;5016943;28;20116;-88
2021/09/24 03:13:03;;;;;;;8.02;2.80;;;17.40;94.00;;;;;;5001033;28;20394;-88
2021/09/24 03:15:28;;;;;;;7.00;2.70;;;17.50;94.00;;;;;;5017743;28;20033;-88
2021/09/24 03:17:54;;;;;;;8.38;3.13;;;17.40;94.00;;;;;;5002151;28;20048;-88
2021/09/24 03:20:20;;;;;;;8.48;3.00;;;17.40;94.00;;;;;;5017265;28;20025;-88
2021/09/24 03:22:46;;;;;;;7.57;3.05;;;17.30;94.10;;;;;;5035233;28;20504;-88
2021/09/24 03:25:12;;;;;;;9.52;3.08;;;17.30;94.10;;;;;;5001805;28;20032;-88
2021/09/24 03:27:38;;;;;;;5.45;2.60;;;17.30;94.20;;;;;;5003712;28;20065;-89
2021/09/24 03:30:06;;;;;;;8.32;3.50;;;17.30;94.20;;;;;;5004540;28;20040;-89
2021/09/24 03:32:33;;;;;;;8.20;4.20;;;17.30;94.20;;;;;;5018973;28;20026;-88
2021/09/24 03:34:59;;;;;;;7.32;4.10;;;17.30;94.20;;;;;;5018095;28;20463;-88
2021/09/24 03:37:26;;;;;;;8.30;4.50;;;17.20;94.20;;;;;;5001548;28;20470;-88
2021/09/24 03:39:51;;;;;;;7.57;4.63;;;17.20;94.30;;;;;;5017710;28;20040;-88
2021/09/24 03:42:17;;;;;;;7.32;5.22;;;17.20;94.30;;;;;;5016600;28;20510;-88
2021/09/24 03:44:43;;;;;;;9.02;6.32;;;17.20;94.30;;;;;;5001208;28;20121;-88
2021/09/24 03:47:09;;;;;;;10.68;6.00;;;17.20;94.30;;;;;;5017118;28;20026;-88
2021/09/24 03:49:35;;;;;;;9.75;6.75;;;17.20;94.30;;;;;;5017021;28;20481;-88
2021/09/24 03:52:03;;;;;;;11.68;6.75;;;17.10;94.30;;;;;;4999978;28;20049;-88
2021/09/24 03:54:29;;;;;;;11.65;7.13;;;17.10;94.40;;;;;;5016901;28;20124;-88
2021/09/24 03:56:56;;;;;;;12.13;7.75;;;17.10;94.50;;;;;;5016523;28;20026;-88
2021/09/24 03:59:22;;;;;;;12.13;8.65;;;17.10;94.50;;;;;;5002335;28;20026;-88
2021/09/24 04:01:48;;;;;;;17.33;10.82;;;17.10;94.60;;;;;;5014731;28;20028;-88
2021/09/24 04:04:13;;;;;;;17.48;10.30;;;17.10;94.60;;;;;;5036771;28;20407;-88
2021/09/24 04:06:39;;;;;;;14.35;10.43;;;17.10;94.70;;;;;;5020499;28;20041;-88
2021/09/24 04:09:04;;;;;;;15.80;11.65;;;17.10;94.90;;;;;;5004355;28;20036;-88
2021/09/24 04:11:30;;;;;;;18.10;12.90;;;17.00;94.90;;;;;;4985371;28;20034;-88
2021/09/24 04:13:56;;;;;;;15.70;13.35;;;17.00;95.00;;;;;;5006154;28;20116;-88
2021/09/24 04:16:21;;;;;;;20.67;14.48;;;17.00;95.20;;;;;;5003566;28;20036;-88
2021/09/24 04:18:48;;;;;;;17.88;13.25;;;17.00;95.30;;;;;;5038047;28;20030;-89
2021/09/24 04:21:14;;;;;;;17.90;14.02;;;17.00;95.30;;;;;;5017941;28;20120;-88
2021/09/24 04:23:40;;;;;;;24.35;16.92;;;16.90;95.30;;;;;;5018546;28;20029;-89
2021/09/24 04:26:06;;;;;;;21.33;14.88;;;16.90;95.50;;;;;;5036074;28;20112;-88
2021/09/24 04:28:32;;;;;;;19.77;16.00;;;16.90;95.40;;;;;;5018739;28;20060;-89
2021/09/24 04:30:58;;;;;;;22.80;16.80;;;16.90;95.50;;;;;;5002375;28;20475;-88
2021/09/24 04:33:24;;;;;;;25.08;18.00;;;16.90;95.60;;;;;;5017017;28;20032;-88
2021/09/24 04:35:50;;;;;;;28.90;21.35;;;16.90;95.60;;;;;;5001689;28;20037;-88
2021/09/24 04:38:16;;;;;;;34.80;22.67;;;16.90;95.70;;;;;;4982525;28;20032;-88
2021/09/24 04:40:41;;;;;;;38.03;24.15;;;16.90;95.90;;;;;;5017148;28;20018;-88
2021/09/24 04:43:08;;;;;;;35.95;24.35;;;16.80;96.00;;;;;;5020878;28;20375;-88
2021/09/24 04:45:42;;;;;;;33.60;24.98;;;16.80;96.10;;;;;;5038081;28;20384;-88
2021/09/24 04:48:08;;;;;;;33.03;24.17;;;16.80;96.20;;;;;;4991843;28;20033;-89
2021/09/24 04:50:34;;;;;;;36.38;24.45;;;16.80;96.30;;;;;;5010467;28;20044;-89
2021/09/24 04:53:00;;;;;;;38.20;23.70;;;16.80;96.30;;;;;;5037332;28;20136;-89
2021/09/24 04:55:26;;;;;;;38.42;25.75;;;16.80;96.40;;;;;;5021740;28;20053;-89
2021/09/24 04:57:52;;;;;;;43.60;26.10;;;16.80;96.50;;;;;;5020428;28;20041;-89
2021/09/24 05:00:17;;;;;;;41.83;27.48;;;16.80;96.50;;;;;;5004280;28;20031;-89
2021/09/24 05:02:43;;;;;;;42.88;28.45;;;16.80;96.50;;;;;;5020111;28;20467;-88
2021/09/24 05:05:10;;;;;;;41.72;27.52;;;16.80;96.60;;;;;;5003380;28;20030;-89
2021/09/24 05:07:36;;;;;;;41.50;25.50;;;16.80;96.70;;;;;;5000245;28;20045;-88
2021/09/24 05:10:04;;;;;;;41.70;26.10;;;16.80;96.90;;;;;;5016253;28;20091;-88
2021/09/24 05:12:30;;;;;;;47.17;28.17;;;16.80;96.70;;;;;;4992723;28;20045;-88
2021/09/24 05:14:55;;;;;;;41.35;26.48;;;16.80;96.80;;;;;;5019791;28;20029;-89
2021/09/24 05:17:21;;;;;;;43.28;26.52;;;16.90;96.80;;;;;;5004749;28;20030;-88
2021/09/24 05:19:47;;;;;;;42.58;26.40;;;16.90;96.90;;;;;;5008936;28;20026;-88
2021/09/24 05:22:12;;;;;;;43.90;27.25;;;16.90;96.90;;;;;;4997364;28;20034;-87
2021/09/24 05:24:38;;;;;;;57.65;30.00;;;16.90;96.90;;;;;;4992495;28;20104;-88
2021/09/24 05:27:04;;;;;;;51.20;29.77;;;16.90;97.00;;;;;;4987472;28;20172;-88
2021/09/24 05:29:30;;;;;;;52.10;29.70;;;16.90;97.10;;;;;;5015732;28;20037;-88
2021/09/24 05:31:56;;;;;;;48.75;28.52;;;16.90;97.00;;;;;;5016526;28;20037;-89
2021/09/24 05:34:22;;;;;;;45.08;26.63;;;16.90;97.10;;;;;;5000647;28;20113;-88
2021/09/24 05:36:51;;;;;;;51.33;29.92;;;17.00;97.10;;;;;;5016300;28;20069;-88
2021/09/24 05:39:18;;;;;;;56.75;30.35;;;17.00;97.20;;;;;;5021811;28;20071;-88
2021/09/24 05:41:44;;;;;;;49.28;29.08;;;17.00;97.40;;;;;;5040036;28;20445;-88
2021/09/24 05:44:10;;;;;;;51.83;29.67;;;17.00;97.40;;;;;;5007514;28;20026;-89
2021/09/24 05:46:35;;;;;;;54.90;31.25;;;17.00;97.50;;;;;;4990398;28;20041;-88
2021/09/24 05:49:03;;;;;;;53.70;28.40;;;17.00;97.50;;;;;;5018851;28;20026;-88
2021/09/24 05:51:28;;;;;;;60.22;31.33;;;17.00;97.50;;;;;;5024172;23;20104;-88
2021/09/24 05:53:54;;;;;;;51.67;28.85;;;17.00;97.60;;;;;;4994209;28;20084;-88
2021/09/24 05:56:20;;;;;;;54.85;31.30;;;17.10;97.70;;;;;;5008899;28;20025;-87
2021/09/24 05:58:46;;;;;;;56.13;29.63;;;17.10;97.90;;;;;;5008193;28;20033;-88
2021/09/24 06:01:11;;;;;;;56.15;32.33;;;17.10;98.10;;;;;;5000030;28;20380;-88
2021/09/24 06:03:40;;;;;;;53.08;31.02;;;17.10;97.90;;;;;;5000419;28;20025;-88
2021/09/24 06:06:06;;;;;;;62.08;31.90;;;17.10;98.00;;;;;;5000558;28;20025;-88
2021/09/24 06:08:32;;;;;;;49.78;29.30;;;17.10;98.00;;;;;;4981480;28;20105;-87
2021/09/24 06:10:58;;;;;;;55.47;31.50;;;17.20;98.00;;;;;;5031142;28;20037;-88
2021/09/24 06:13:24;;;;;;;51.08;31.55;;;17.20;98.00;;;;;;5015580;28;20076;-88
2021/09/24 06:15:49;;;;;;;59.90;32.92;;;17.20;98.00;;;;;;4994366;28;20029;-88
2021/09/24 06:18:16;;;;;;;57.67;32.30;;;17.20;98.10;;;;;;5009702;28;20113;-88
2021/09/24 06:20:42;;;;;;;52.05;32.67;;;17.20;98.10;;;;;;5016128;28;20041;-88
2021/09/24 06:23:08;;;;;;;58.88;33.17;;;17.20;98.20;;;;;;4999944;28;20022;-88
2021/09/24 06:25:33;;;;;;;57.35;32.80;;;17.20;98.30;;;;;;4996598;28;20084;-88
2021/09/24 06:28:00;;;;;;;51.58;29.60;;;17.20;98.20;;;;;;4996138;28;20068;-88
2021/09/24 06:30:35;;;;;;;52.50;29.88;;;17.20;98.30;;;;;;5023803;28;20544;-88
2021/09/24 06:33:00;;;;;;;59.95;32.53;;;17.20;98.30;;;;;;5012466;28;20041;-88
2021/09/24 06:35:26;;;;;;;50.95;30.02;;;17.20;98.30;;;;;;5000015;28;20474;-88
2021/09/24 06:37:52;;;;;;;44.00;27.80;;;17.20;98.40;;;;;;4999728;28;20030;-88
2021/09/24 06:40:18;;;;;;;40.45;26.70;;;17.20;98.40;;;;;;4999877;28;20075;-88
2021/09/24 06:42:44;;;;;;;46.75;28.30;;;17.20;98.30;;;;;;4999604;28;20029;-88
2021/09/24 06:45:12;;;;;;;44.67;28.08;;;17.20;98.40;;;;;;4997072;28;20479;-87
2021/09/24 06:47:39;;;;;;;48.28;28.05;;;17.20;98.40;;;;;;5027309;28;20017;-88
2021/09/24 06:50:05;;;;;;;44.35;27.75;;;17.20;98.40;;;;;;5015989;28;20025;-88
2021/09/24 06:52:31;;;;;;;45.67;26.70;;;17.20;98.40;;;;;;5025300;28;20050;-86
2021/09/24 06:55:01;;;;;;;42.72;25.83;;;17.20;98.40;;;;;;5012397;28;20085;-87
2021/09/24 06:57:27;;;;;;;44.28;26.50;;;17.20;98.40;;;;;;5003251;28;20029;-86
2021/09/24 06:59:52;;;;;;;40.50;25.73;;;17.20;98.40;;;;;;5015531;28;20121;-87
2021/09/24 07:02:18;;;;;;;43.03;27.67;;;17.20;98.40;;;;;;4995515;28;20049;-87
2021/09/24 07:04:44;;;;;;;40.20;25.48;;;17.20;98.40;;;;;;5010221;28;20092;-87
2021/09/24 07:07:09;;;;;;;45.13;29.10;;;17.20;98.40;;;;;;4999092;28;20088;-87
2021/09/24 07:09:36;;;;;;;45.05;27.83;;;17.20;98.40;;;;;;5032931;28;20473;-87
2021/09/24 07:12:02;;;;;;;44.42;27.63;;;17.20;98.40;;;;;;5016702;28;20148;-86
2021/09/24 07:14:31;;;;;;;46.40;28.00;;;17.20;98.40;;;;;;5038996;28;20021;-86
2021/09/24 07:16:58;;;;;;;43.70;27.95;;;17.20;98.40;;;;;;5003866;28;20030;-87
2021/09/24 07:19:23;;;;;;;48.47;28.95;;;17.20;98.40;;;;;;5013714;28;20017;-87
2021/09/24 07:21:49;;;;;;;50.00;31.50;;;17.20;98.40;;;;;;5033153;28;20433;-87
2021/09/24 07:24:17;;;;;;;48.78;28.67;;;17.20;98.50;;;;;;5015273;28;20048;-86
2021/09/24 07:26:43;;;;;;;51.17;29.98;;;17.20;98.40;;;;;;5026842;28;20037;-87
2021/09/24 07:29:09;;;;;;;50.22;28.42;;;17.20;98.40;;;;;;5024962;28;20029;-87
2021/09/24 07:31:35;;;;;;;49.70;29.52;;;17.30;98.40;;;;;;4989440;28;20022;-86
2021/09/24 07:34:00;;;;;;;56.50;30.63;;;17.30;98.40;;;;;;5008898;28;20040;-87
2021/09/24 07:36:27;;;;;;;56.00;30.23;;;17.30;98.40;;;;;;5011296;28;20037;-86
2021/09/24 07:38:53;;;;;;;52.78;29.50;;;17.30;98.40;;;;;;5011318;28;20033;-86
2021/09/24 07:41:20;;;;;;;59.08;31.90;;;17.30;98.40;;;;;;5030219;28;20406;-86
2021/09/24 07:43:51;;;;;;;53.40;30.20;;;17.30;98.40;;;;;;5031121;28;20034;-88
2021/09/24 07:46:18;;;;;;;55.92;29.75;;;17.40;98.40;;;;;;5031321;28;20059;-87
2021/09/24 07:48:44;;;;;;;53.90;28.55;;;17.40;98.40;;;;;;5031438;28;20017;-87
2021/09/24 07:51:10;;;;;;;61.47;32.10;;;17.40;98.30;;;;;;5030842;28;20057;-88
2021/09/24 07:53:37;;;;;;;64.00;34.60;;;17.50;98.40;;;;;;5014718;28;20036;-88
2021/09/24 07:56:04;;;;;;;57.67;31.98;;;17.40;98.30;;;;;;5020330;28;20061;-87
2021/09/24 07:58:32;;;;;;;63.33;32.90;;;17.50;98.40;;;;;;5029400;28;20033;-86
2021/09/24 08:00:58;;;;;;;60.17;31.75;;;17.50;98.40;;;;;;4998445;28;20057;-87
2021/09/24 08:03:23;;;;;;;60.05;33.10;;;17.50;98.40;;;;;;5014284;28;20057;-86
2021/09/24 08:05:49;;;;;;;78.88;39.20;;;17.50;98.40;;;;;;5030661;28;20526;-86
2021/09/24 08:08:15;;;;;;;71.80;34.83;;;17.50;98.40;;;;;;5008046;28;20030;-87
2021/09/24 08:10:41;;;;;;;69.85;34.00;;;17.50;98.40;;;;;;5010333;28;20021;-88
2021/09/24 08:13:07;;;;;;;69.88;34.05;;;17.50;98.40;;;;;;5033490;28;20056;-87
2021/09/24 08:15:34;;;;;;;77.10;36.63;;;17.50;98.40;;;;;;5001731;28;20542;-88
2021/09/24 08:17:59;;;;;;;67.78;34.75;;;17.50;98.40;;;;;;5035394;28;20028;-88
2021/09/24 08:20:25;;;;;;;71.63;35.58;;;17.50;98.40;;;;;;5002017;28;20117;-88
2021/09/24 08:22:51;;;;;;;70.53;34.60;;;17.50;98.40;;;;;;5016820;28;20103;-88
2021/09/24 08:25:19;;;;;;;66.72;34.17;;;17.50;98.40;;;;;;5002143;28;20037;-88
2021/09/24 08:31:07;;;;;;;72.18;34.53;;;17.60;98.30;;;;;;5033360;28;20180;-88
2021/09/24 08:33:33;;;;;;;61.28;32.55;;;17.60;98.30;;;;;;5015461;28;20490;-89
2021/09/24 08:35:59;;;;;;;69.80;35.63;;;17.60;98.30;;;;;;4998902;28;20022;-89
2021/09/24 08:38:25;;;;;;;63.97;33.47;;;17.60;98.30;;;;;;5013103;28;20609;-88
2021/09/24 08:40:51;;;;;;;65.97;34.83;;;17.60;98.30;;;;;;5018220;28;20053;-88
2021/09/24 08:43:17;;;;;;;63.03;31.58;;;17.70;98.30;;;;;;5018154;28;20147;-88
2021/09/24 08:45:46;;;;;;;60.60;34.10;;;17.70;98.30;;;;;;5026541;28;20049;-88
2021/09/24 08:48:13;;;;;;;62.00;32.60;;;17.70;98.20;;;;;;5031570;28;20547;-88
2021/09/24 08:50:42;;;;;;;58.92;33.17;;;17.80;98.20;;;;;;5015029;28;20022;-88
2021/09/24 08:53:11;;;;;;;51.92;31.15;;;17.80;98.20;;;;;;5008655;28;20057;-89
2021/09/24 08:55:37;;;;;;;58.95;31.70;;;17.80;98.20;;;;;;4996806;28;20030;-88
2021/09/24 08:58:04;;;;;;;58.25;33.90;;;17.80;98.20;;;;;;4993786;28;20088;-88
2021/09/24 09:00:30;;;;;;;55.55;32.33;;;17.90;98.20;;;;;;5014703;28;20014;-89
2021/09/24 09:03:05;;;;;;;56.00;30.40;;;17.90;98.10;;;;;;4982480;28;20034;-88
2021/09/24 09:05:46;;;;;;;48.80;29.85;;;17.90;98.10;;;;;;4998752;28;20026;-89
2021/09/24 09:08:23;;;;;;;49.42;29.55;;;18.00;98.10;;;;;;4989767;28;20390;-89
2021/09/24 09:10:57;;;;;;;47.70;28.95;;;18.00;98.00;;;;;;4998097;28;20053;-88
2021/09/24 09:13:35;;;;;;;47.45;28.65;;;18.10;98.00;;;;;;5014458;28;20018;-88
2021/09/24 09:16:07;;;;;;;47.40;29.48;;;18.10;98.00;;;;;;5015301;28;20029;-88
2021/09/24 09:18:38;;;;;;;52.05;30.40;;;18.20;98.00;;;;;;5014498;28;20060;-88
2021/09/24 09:21:06;;;;;;;43.17;27.15;;;18.20;98.10;;;;;;4998327;28;20022;-89
2021/09/24 09:23:35;;;;;;;37.70;26.10;;;18.30;97.80;;;;;;5015009;28;20075;-88
2021/09/24 09:26:11;;;;;;;39.13;26.63;;;18.40;97.70;;;;;;5015479;28;20018;-88
2021/09/24 09:28:56;;;;;;;41.78;26.60;;;18.30;97.60;;;;;;5014832;28;20022;-87
2021/09/24 09:31:30;;;;;;;39.17;26.40;;;18.40;97.40;;;;;;5014412;28;20017;-88
2021/09/24 09:34:01;;;;;;;34.60;23.70;;;18.40;97.30;;;;;;5007511;28;20021;-88
2021/09/24 09:36:41;;;;;;;33.75;24.45;;;18.50;97.20;;;;;;5015456;28;20026;-88
2021/09/24 09:39:13;;;;;;;34.35;24.10;;;18.50;97.10;;;;;;5010218;28;20467;-88
2021/09/24 09:41:53;;;;;;;38.42;24.85;;;18.60;97.00;;;;;;5007223;28;20027;-87
2021/09/24 09:44:30;;;;;;;33.13;22.77;;;18.60;96.70;;;;;;4997538;28;20022;-89
2021/09/24 09:46:56;;;;;;;36.35;23.70;;;18.60;96.60;;;;;;5013848;28;20132;-87
2021/09/24 09:49:25;;;;;;;31.98;22.10;;;18.60;96.20;;;;;;5004478;28;20110;-88
2021/09/24 09:52:09;;;;;;;28.35;21.10;;;18.70;96.20;;;;;;4987139;28;20601;-84
2021/09/24 09:54:36;;;;;;;30.40;21.33;;;18.70;96.30;;;;;;5015494;28;20018;-84
2021/09/24 09:57:12;;;;;;;27.73;20.25;;;18.80;96.30;;;;;;4984284;28;20041;-85
2021/09/24 09:59:38;;;;;;;24.25;19.77;;;18.80;96.20;;;;;;5016489;28;20093;-84
2021/09/24 10:02:07;;;;;;;24.17;18.98;;;18.90;96.00;;;;;;5015138;28;20112;-84
2021/09/24 10:04:41;;;;;;;23.33;18.30;;;18.90;95.90;;;;;;5033600;28;20028;-85
2021/09/24 10:07:12;;;;;;;24.10;19.35;;;18.90;95.80;;;;;;5025755;28;20411;-84
2021/09/24 10:09:37;;;;;;;20.52;15.82;;;19.00;95.50;;;;;;5010980;28;20059;-85
2021/09/24 10:12:21;;;;;;;24.38;17.02;;;19.00;95.70;;;;;;4999768;28;20034;-84
2021/09/24 10:14:49;;;;;;;21.73;16.27;;;19.10;95.60;;;;;;5033751;28;20067;-84
2021/09/24 10:17:16;;;;;;;19.50;15.85;;;19.10;95.40;;;;;;5032511;28;20387;-84
2021/09/24 10:19:43;;;;;;;18.80;15.32;;;19.10;95.20;;;;;;5012204;28;20037;-84
2021/09/24 10:22:09;;;;;;;20.40;16.00;;;19.20;95.20;;;;;;5015809;28;20152;-84
2021/09/24 10:24:35;;;;;;;20.70;17.27;;;19.20;94.60;;;;;;5020424;28;20483;-84
2021/09/24 10:27:06;;;;;;;18.88;15.27;;;19.20;94.50;;;;;;4997366;28;20034;-85
2021/09/24 10:29:36;;;;;;;16.77;14.88;;;19.30;94.60;;;;;;5010702;28;20034;-83
2021/09/24 10:32:15;;;;;;;20.83;15.85;;;19.30;94.60;;;;;;5014634;28;20360;-85
2021/09/24 10:35:00;;;;;;;20.02;16.10;;;19.40;94.40;;;;;;5008568;28;20140;-84
2021/09/24 10:37:29;;;;;;;17.67;14.38;;;19.50;94.00;;;;;;5016291;28;20025;-82
2021/09/24 10:39:59;;;;;;;15.70;13.55;;;19.50;93.90;;;;;;5032178;28;20032;-83
2021/09/24 10:42:33;;;;;;;16.50;14.48;;;19.60;93.90;;;;;;5018063;28;20023;-83
2021/09/24 10:45:14;;;;;;;19.85;15.15;;;19.60;93.40;;;;;;5032011;28;20117;-84
2021/09/24 10:47:44;;;;;;;17.30;13.52;;;19.70;93.20;;;;;;5016177;28;20029;-84
2021/09/24 10:50:29;;;;;;;17.52;14.40;;;19.70;93.20;;;;;;4995972;28;20502;-83
2021/09/24 10:53:10;;;;;;;16.98;14.93;;;19.80;92.70;;;;;;5012492;28;20176;-85
2021/09/24 10:56:08;;;;;;;15.95;13.55;;;19.90;92.80;;;;;;5033322;28;20025;-84
2021/09/24 10:58:39;;;;;;;17.15;13.52;;;19.90;92.80;;;;;;5016082;28;20026;-85
2021/09/24 11:01:17;;;;;;;20.05;15.15;;;20.00;92.70;;;;;;5026461;28;20199;-88
2021/09/24 11:03:54;;;;;;;21.67;16.33;;;20.00;92.30;;;;;;5033717;28;20057;-89
2021/09/24 11:06:38;;;;;;;17.85;14.55;;;20.00;92.20;;;;;;5033193;28;20152;-88
2021/09/24 11:09:06;;;;;;;21.27;16.23;;;20.00;92.30;;;;;;5022092;28;20471;-87
2021/09/24 11:11:39;;;;;;;23.85;16.77;;;20.10;92.10;;;;;;5032238;28;20036;-89
2021/09/24 11:14:36;;;;;;;17.25;14.80;;;20.10;92.40;;;;;;4998729;28;20061;-88
2021/09/24 11:17:04;;;;;;;18.00;15.55;;;20.20;92.20;;;;;;4984915;28;20228;-89
2021/09/24 11:19:38;;;;;;;26.02;17.27;;;20.30;92.00;;;;;;5015730;28;20471;-88
2021/09/24 11:22:12;;;;;;;19.92;17.48;;;20.40;91.40;;;;;;5012815;28;20057;-88
2021/09/24 11:24:40;;;;;;;19.05;17.00;;;20.40;91.40;;;;;;5015238;28;20022;-86
2021/09/24 11:27:12;;;;;;;22.30;19.00;;;20.40;91.30;;;;;;5032720;28;20386;-89
2021/09/24 11:30:04;;;;;;;19.35;16.92;;;20.40;91.00;;;;;;5025131;28;20029;-89
2021/09/24 11:32:38;;;;;;;22.50;18.55;;;20.40;91.30;;;;;;5015011;28;20029;-89
2021/09/24 11:35:05;;;;;;;22.10;17.67;;;20.50;91.20;;;;;;5031712;28;20108;-88
2021/09/24 11:37:34;;;;;;;19.30;16.42;;;20.50;91.00;;;;;;4998937;28;20064;-88
2021/09/24 11:40:34;;;;;;;18.77;15.00;;;20.50;91.30;;;;;;5031067;28;20112;-86
2021/09/24 11:43:06;;;;;;;19.83;15.57;;;20.50;91.50;;;;;;4942524;28;20037;-86
2021/09/24 11:46:08;;;;;;;19.20;16.83;;;20.60;91.30;;;;;;5032548;28;20022;-87
2021/09/24 11:48:37;;;;;;;19.52;17.00;;;20.60;90.90;;;;;;5030993;28;20021;-87
2021/09/24 11:53:55;;;;;;;24.52;19.25;;;20.60;90.70;;;;;;5050392;28;20045;-84
2021/09/24 11:56:38;;;;;;;19.85;17.42;;;20.70;90.50;;;;;;5052588;28;20060;-82
2021/09/24 11:59:08;;;;;;;21.77;18.92;;;20.70;90.50;;;;;;5026701;28;20033;-84
2021/09/24 12:01:35;;;;;;;;;;;20.70;90.40;;;;;;5041110;28;20478;-82
2021/09/24 12:04:03;;;;;;;20.83;17.30;;;20.70;90.60;;;;;;5013742;28;20375;-83
2021/09/24 12:06:35;;;;;;;23.42;18.10;;;20.70;90.70;;;;;;5007545;28;20034;-83
2021/09/24 12:09:08;;;;;;;22.30;18.73;;;20.80;90.80;;;;;;5032360;28;20029;-94
2021/09/24 12:11:49;;;;;;;23.15;19.10;;;20.90;90.70;;;;;;5050055;28;20465;-91
2021/09/24 12:14:16;;;;;;;20.25;17.48;;;21.00;90.60;;;;;;5048995;28;20087;-91
2021/09/24 12:16:43;;;;;;;22.00;17.65;;;21.00;90.20;;;;;;5049572;28;20030;-89
2021/09/24 12:19:14;;;;;;;20.55;16.35;;;21.10;89.00;;;;;;5019701;28;20037;-90
2021/09/24 12:21:50;;;;;;;19.40;16.02;;;21.10;89.50;;;;;;5052426;28;20045;-89
2021/09/24 12:24:22;;;;;;;19.25;14.88;;;21.10;89.70;;;;;;5052278;28;20017;-89
2021/09/24 12:26:51;;;;;;;15.15;12.50;;;21.20;89.80;;;;;;5053746;28;20049;-90
2021/09/24 12:29:24;;;;;;;14.52;11.73;;;21.30;89.10;;;;;;5053531;28;20021;-90
2021/09/24 12:31:56;;;;;;;14.48;11.27;;;21.30;87.90;;;;;;5050723;28;20055;-91
2021/09/24 12:34:25;;;;;;;11.93;10.15;;;21.40;88.40;;;;;;5053479;28;20028;-90
2021/09/24 12:36:56;;;;;;;11.30;9.48;;;21.40;88.40;;;;;;5054217;28;20060;-91
2021/09/24 12:39:24;;;;;;;11.93;10.02;;;21.40;88.30;;;;;;5053470;28;20029;-90
2021/09/24 12:41:51;;;;;;;12.48;9.20;;;21.40;87.90;;;;;;5036936;28;20528;-91
2021/09/24 12:44:18;;;;;;;10.60;8.23;;;21.40;87.70;;;;;;5036132;28;20032;-90
2021/09/24 12:46:45;;;;;;;11.32;8.52;;;21.40;88.20;;;;;;5036431;28;20074;-92
2021/09/24 12:49:12;;;;;;;12.63;9.10;;;21.40;88.50;;;;;;5035403;28;20036;-90